Terminal Aerodrome Forecast
Issued by NWS North Platte, NE

Home | Current Version | Previous Version | Text Only | Print | Product List | Glossary Off
Versions: 1 2 3 4 5 6 7 8 9 10 11 12 13 14 15 16 17

962
FTUS43 KLBF 070530
TAFVTN
TAF
KVTN 070530Z 0706/0806 31012KT P6SM BKN150
     FM071400 31015G25KT P6SM BKN100
     FM072300 31016G26KT P6SM FEW090 SCT200=

USA.gov is the U.S. government's official web portal to all federal, state and local government web resources and services.